Terminal Aerodrome Forecast
Issued by NWS Brownsville, TX

Home | Current Version | Previous Version | Text Only | Print | Product List | Glossary On
Versions: 1 2 3 4 5 6 7 8 9 10 11 12 13 14 15 16 17 18 19
000
FTUS44 KBRO 200537
TAFHRL
TAF
KHRL 200537Z 2006/2106 15007KT P6SM FEW025
     FM201000 16006KT P6SM VCSH SCT025
      TEMPO 2011/2013 5SM BR BKN025
     FM201600 15015G22KT P6SM VCSH SCT035 BKN050
     FM202300 13012KT P6SM FEW050=

USA.gov is the U.S. government's official web portal to all federal, state and local government web resources and services.